»·PEaware :: QXE2426 KGEG-KBOI

QXE2426 :: KGEG-KBOI

FLIGHT INFORMATION

Flight Status: Arrived
Operator:
Horizon Air
More flights by this operator :: More flights under this callsign
Pilot: Riley H. (32429)
Aircraft: DEHAVILLAND DASH 8 400
(DH8D)
More flights by this aircraft type
Origin: KGEG Spokane Intl
United States
Destination: KBOI Boise Air Terminal/Gowen
United States
More flights between these airports :: More routes between these airports
Route: GEG V253 DNJ COLLR BEWTE BEWTE3
File this flight plan on PilotEdge
Remarks:
Altitude:
(Current/Filed)
25,000ft
Speed:
(Current/Filed)
360kts
Departed: 14-Jan-22 06:27 PM
Arrived: 14-Jan-22 07:20 PM
Distance/Time
Traveled:
249nm/0:53
Distance/Time
To Go:
Arrived

Flight Plot

Page will automatically refresh every two minutes.

Flight plan parsing failed; only flown route is shown


Map Options




Map Legend


Flown Route
Filed Route
Departure Airport
Arrival Airport
Navaid (VOR, NDB)
Fix

Horizontal Profiles

Position Reports

Time Latitude Longitude Heading Altitude Ground
Speed
14-Jan-22 18:07 47.623235 -117.538399 1 2363ft 0kts
14-Jan-22 18:08 47.623235 -117.538399 1 2363ft 0kts
14-Jan-22 18:09 47.623235 -117.538399 1 2363ft 0kts
14-Jan-22 18:10 47.623235 -117.538399 1 2363ft 0kts
14-Jan-22 18:11 47.623235 -117.538399 1 2363ft 0kts
14-Jan-22 18:12 47.623235 -117.538399 1 2363ft 0kts
14-Jan-22 18:13 47.623235 -117.538399 1 2363ft 0kts
14-Jan-22 18:14 47.623235 -117.538399 1 2363ft 0kts
14-Jan-22 18:15 47.623239 -117.538399 1 2363ft 0kts
14-Jan-22 18:16 47.622986 -117.538457 356 2363ft 2kts
14-Jan-22 18:16 47.622634 -117.538787 86 2363ft 1kts
14-Jan-22 18:17 47.622632 -117.539139 83 2364ft 1kts
14-Jan-22 18:19 47.622632 -117.539186 90 2364ft 0kts
14-Jan-22 18:20 47.622632 -117.539186 90 2364ft 0kts
14-Jan-22 18:20 47.622632 -117.539186 90 2364ft 0kts
14-Jan-22 18:21 47.622380 -117.537715 132 2361ft 14kts
14-Jan-22 18:22 47.623804 -117.533470 45 2358ft 15kts
14-Jan-22 18:24 47.627407 -117.528048 45 2346ft 21kts
14-Jan-22 18:24 47.630882 -117.522817 44 2332ft 20kts
14-Jan-22 18:25 47.631989 -117.519603 134 2327ft 5kts
14-Jan-22 18:26 47.629457 -117.520924 225 2334ft 65kts
14-Jan-22 18:27 47.599061 -117.564971 223 3842ft 184kts
14-Jan-22 18:28 47.563112 -117.616450 223 6606ft 197kts
14-Jan-22 18:29 47.523285 -117.673446 223 9570ft 206kts
14-Jan-22 18:30 47.474355 -117.670797 158 11973ft 226kts
14-Jan-22 18:31 47.406473 -117.632114 158 13990ft 256kts
14-Jan-22 18:32 47.339186 -117.594124 158 16210ft 265kts
14-Jan-22 18:33 47.269451 -117.554790 158 18184ft 273kts
14-Jan-22 18:34 47.197689 -117.514453 158 19887ft 281kts
14-Jan-22 18:35 47.123860 -117.472997 158 21369ft 288kts
14-Jan-22 18:36 47.048396 -117.430798 158 22655ft 294kts
14-Jan-22 18:37 46.971386 -117.387873 158 23771ft 299kts
14-Jan-22 18:38 46.893485 -117.344586 159 24735ft 304kts
14-Jan-22 18:39 46.814324 -117.300748 159 25010ft 326kts
14-Jan-22 18:40 46.744173 -117.262012 159 25006ft 341kts
14-Jan-22 18:41 46.657471 -117.202072 141 25025ft 350kts
14-Jan-22 18:42 46.581755 -117.111046 140 25002ft 357kts
14-Jan-22 18:43 46.505772 -117.019084 140 25000ft 355kts
14-Jan-22 18:44 46.429666 -116.927330 140 25000ft 354kts
14-Jan-22 18:45 46.346442 -116.855249 162 25002ft 354kts
14-Jan-22 18:46 46.251815 -116.814727 163 25001ft 355kts
14-Jan-22 18:47 46.156874 -116.774787 163 25001ft 356kts
14-Jan-22 18:48 46.061924 -116.734981 163 25000ft 357kts
14-Jan-22 18:49 45.967315 -116.695474 163 25000ft 357kts
14-Jan-22 18:50 45.871944 -116.655807 163 25000ft 357kts
14-Jan-22 18:51 45.788739 -116.621327 163 25000ft 356kts
14-Jan-22 18:52 45.693591 -116.582011 163 25000ft 355kts
14-Jan-22 18:53 45.598816 -116.542988 163 25000ft 355kts
14-Jan-22 18:54 45.504071 -116.504112 163 25000ft 356kts
14-Jan-22 18:55 45.408813 -116.465178 163 25000ft 356kts
14-Jan-22 18:56 45.314252 -116.426652 163 25000ft 356kts
14-Jan-22 18:57 45.219074 -116.388007 163 25000ft 356kts
14-Jan-22 18:58 45.124337 -116.349707 164 25000ft 357kts
14-Jan-22 18:59 45.032653 -116.312683 164 25000ft 357kts
14-Jan-22 19:00 44.949968 -116.279435 164 25000ft 357kts
14-Jan-22 19:01 44.854868 -116.241317 164 25000ft 357kts
14-Jan-22 19:02 44.777348 -116.210841 170 24986ft 357kts
14-Jan-22 19:03 44.679805 -116.230801 191 24996ft 356kts
14-Jan-22 19:04 44.581467 -116.258215 191 23176ft 358kts
14-Jan-22 19:05 44.484722 -116.285146 191 21348ft 352kts
14-Jan-22 19:06 44.389433 -116.311491 191 19525ft 349kts
14-Jan-22 19:07 44.294533 -116.342123 193 17718ft 353kts
14-Jan-22 19:08 44.199135 -116.372996 192 15914ft 355kts
14-Jan-22 19:09 44.103372 -116.402307 192 14080ft 346kts
14-Jan-22 19:10 44.013911 -116.429033 185 12204ft 316kts
14-Jan-22 19:11 43.930658 -116.411059 169 10365ft 293kts
14-Jan-22 19:12 43.852427 -116.391347 169 8517ft 279kts
14-Jan-22 19:13 43.793830 -116.376577 169 7085ft 271kts
14-Jan-22 19:14 43.722461 -116.358584 169 5572ft 253kts
14-Jan-22 19:15 43.655866 -116.341770 169 4399ft 224kts
14-Jan-22 19:16 43.603505 -116.324049 148 3996ft 167kts
14-Jan-22 19:17 43.582489 -116.272849 115 3409ft 128kts
14-Jan-22 19:18 43.567578 -116.229084 115 2847ft 107kts
14-Jan-22 19:19 43.564679 -116.217307 319 2858ft 13kts
14-Jan-22 19:20 43.566575 -116.221751 345 2853ft 10kts
14-Jan-22 19:21 43.567160 -116.222070 334 2853ft 0kts
14-Jan-22 19:22 43.567160 -116.222070 334 2853ft 0kts

Navigation Log

Ident Type
Flight plan parsing failed, navigation log unavailable